sensor_id;sensor_type;location;lat;lon;timestamp;P1;durP1;ratioP1;P2;durP2;ratioP2
48935;SDS011;34745;52.276;10.528;2023-02-28T00:01:19;14.63;;;8.77;;
48935;SDS011;34745;52.276;10.528;2023-02-28T00:03:48;16.33;;;8.20;;
48935;SDS011;34745;52.276;10.528;2023-02-28T00:06:15;12.83;;;7.40;;
48935;SDS011;34745;52.276;10.528;2023-02-28T00:08:42;13.97;;;8.00;;
48935;SDS011;34745;52.276;10.528;2023-02-28T00:11:10;19.70;;;7.77;;
48935;SDS011;34745;52.276;10.528;2023-02-28T00:13:41;13.47;;;7.00;;
48935;SDS011;34745;52.276;10.528;2023-02-28T00:16:10;9.43;;;6.87;;
48935;SDS011;34745;52.276;10.528;2023-02-28T00:18:39;10.80;;;6.90;;
48935;SDS011;34745;52.276;10.528;2023-02-28T00:21:09;14.50;;;7.17;;
48935;SDS011;34745;52.276;10.528;2023-02-28T00:23:36;13.00;;;7.60;;
48935;SDS011;34745;52.276;10.528;2023-02-28T00:26:03;12.90;;;7.67;;
48935;SDS011;34745;52.276;10.528;2023-02-28T00:28:30;11.90;;;7.23;;
48935;SDS011;34745;52.276;10.528;2023-02-28T00:30:57;10.93;;;7.83;;
48935;SDS011;34745;52.276;10.528;2023-02-28T00:33:26;12.77;;;7.70;;
48935;SDS011;34745;52.276;10.528;2023-02-28T00:36:00;11.33;;;8.00;;
48935;SDS011;34745;52.276;10.528;2023-02-28T00:38:30;13.60;;;8.20;;
48935;SDS011;34745;52.276;10.528;2023-02-28T00:40:58;13.90;;;8.13;;
48935;SDS011;34745;52.276;10.528;2023-02-28T00:43:31;16.03;;;7.67;;
48935;SDS011;34745;52.276;10.528;2023-02-28T00:45:59;14.30;;;8.37;;
48935;SDS011;34745;52.276;10.528;2023-02-28T00:48:26;16.10;;;9.57;;
48935;SDS011;34745;52.276;10.528;2023-02-28T00:50:53;15.93;;;9.40;;
48935;SDS011;34745;52.276;10.528;2023-02-28T00:53:20;15.73;;;8.87;;
48935;SDS011;34745;52.276;10.528;2023-02-28T00:55:50;14.17;;;9.00;;
48935;SDS011;34745;52.276;10.528;2023-02-28T00:58:17;17.77;;;9.70;;
48935;SDS011;34745;52.276;10.528;2023-02-28T01:00:44;14.40;;;8.57;;
48935;SDS011;34745;52.276;10.528;2023-02-28T01:03:15;12.43;;;8.10;;
48935;SDS011;34745;52.276;10.528;2023-02-28T01:05:44;19.40;;;8.20;;
48935;SDS011;34745;52.276;10.528;2023-02-28T01:08:12;14.33;;;8.17;;
48935;SDS011;34745;52.276;10.528;2023-02-28T01:10:40;12.80;;;7.50;;
48935;SDS011;34745;52.276;10.528;2023-02-28T01:13:08;14.80;;;7.40;;
48935;SDS011;34745;52.276;10.528;2023-02-28T01:15:36;11.63;;;7.47;;
48935;SDS011;34745;52.276;10.528;2023-02-28T01:18:03;14.43;;;7.27;;
48935;SDS011;34745;52.276;10.528;2023-02-28T01:20:30;12.17;;;7.20;;
48935;SDS011;34745;52.276;10.528;2023-02-28T01:22:57;9.93;;;6.87;;
48935;SDS011;34745;52.276;10.528;2023-02-28T01:25:24;14.60;;;7.07;;
48935;SDS011;34745;52.276;10.528;2023-02-28T01:27:51;11.77;;;7.03;;
48935;SDS011;34745;52.276;10.528;2023-02-28T01:30:20;15.30;;;7.13;;
48935;SDS011;34745;52.276;10.528;2023-02-28T01:32:47;9.97;;;6.50;;
48935;SDS011;34745;52.276;10.528;2023-02-28T01:35:14;12.67;;;7.33;;
48935;SDS011;34745;52.276;10.528;2023-02-28T01:37:41;11.57;;;6.90;;
48935;SDS011;34745;52.276;10.528;2023-02-28T01:40:08;10.93;;;7.10;;
48935;SDS011;34745;52.276;10.528;2023-02-28T01:42:36;13.23;;;7.30;;
48935;SDS011;34745;52.276;10.528;2023-02-28T01:45:07;12.10;;;7.10;;
48935;SDS011;34745;52.276;10.528;2023-02-28T01:47:46;10.97;;;7.13;;
48935;SDS011;34745;52.276;10.528;2023-02-28T01:50:17;14.40;;;7.47;;
48935;SDS011;34745;52.276;10.528;2023-02-28T01:52:47;11.77;;;6.63;;
48935;SDS011;34745;52.276;10.528;2023-02-28T01:55:16;9.13;;;6.63;;
48935;SDS011;34745;52.276;10.528;2023-02-28T01:57:45;14.30;;;7.67;;
48935;SDS011;34745;52.276;10.528;2023-02-28T02:00:15;11.73;;;6.93;;
48935;SDS011;34745;52.276;10.528;2023-02-28T02:02:45;8.77;;;6.30;;
48935;SDS011;34745;52.276;10.528;2023-02-28T02:05:19;9.77;;;7.10;;
48935;SDS011;34745;52.276;10.528;2023-02-28T02:07:48;12.30;;;7.13;;
48935;SDS011;34745;52.276;10.528;2023-02-28T02:10:20;12.67;;;7.30;;
48935;SDS011;34745;52.276;10.528;2023-02-28T02:12:58;12.17;;;7.40;;
48935;SDS011;34745;52.276;10.528;2023-02-28T02:15:35;11.40;;;6.40;;
48935;SDS011;34745;52.276;10.528;2023-02-28T02:18:13;10.50;;;6.60;;
48935;SDS011;34745;52.276;10.528;2023-02-28T02:20:47;10.37;;;6.30;;
48935;SDS011;34745;52.276;10.528;2023-02-28T02:23:45;12.27;;;6.80;;
48935;SDS011;34745;52.276;10.528;2023-02-28T02:26:51;11.17;;;6.13;;
48935;SDS011;34745;52.276;10.528;2023-02-28T02:32:25;9.33;;;5.73;;
48935;SDS011;34745;52.276;10.528;2023-02-28T02:35:11;7.87;;;5.43;;
48935;SDS011;34745;52.276;10.528;2023-02-28T02:37:42;8.40;;;5.53;;
48935;SDS011;34745;52.276;10.528;2023-02-28T02:40:14;12.30;;;6.20;;
48935;SDS011;34745;52.276;10.528;2023-02-28T02:42:45;9.07;;;5.83;;
48935;SDS011;34745;52.276;10.528;2023-02-28T02:45:17;8.43;;;5.87;;
48935;SDS011;34745;52.276;10.528;2023-02-28T02:47:49;8.67;;;5.30;;
48935;SDS011;34745;52.276;10.528;2023-02-28T02:50:21;9.63;;;5.50;;
48935;SDS011;34745;52.276;10.528;2023-02-28T02:52:52;9.30;;;5.60;;
48935;SDS011;34745;52.276;10.528;2023-02-28T02:56:52;13.30;;;5.53;;
48935;SDS011;34745;52.276;10.528;2023-02-28T02:59:20;10.73;;;5.37;;
48935;SDS011;34745;52.276;10.528;2023-02-28T03:01:50;7.83;;;5.07;;
48935;SDS011;34745;52.276;10.528;2023-02-28T03:04:20;9.57;;;5.40;;
48935;SDS011;34745;52.276;10.528;2023-02-28T03:06:51;11.30;;;5.53;;
48935;SDS011;34745;52.276;10.528;2023-02-28T03:09:21;9.13;;;5.57;;
48935;SDS011;34745;52.276;10.528;2023-02-28T03:11:49;8.97;;;5.43;;
48935;SDS011;34745;52.276;10.528;2023-02-28T03:14:22;7.30;;;4.70;;
48935;SDS011;34745;52.276;10.528;2023-02-28T03:16:58;6.83;;;4.67;;
48935;SDS011;34745;52.276;10.528;2023-02-28T03:19:42;8.00;;;5.17;;
48935;SDS011;34745;52.276;10.528;2023-02-28T03:22:22;10.80;;;5.83;;
48935;SDS011;34745;52.276;10.528;2023-02-28T03:25:00;11.30;;;5.77;;
48935;SDS011;34745;52.276;10.528;2023-02-28T03:27:35;9.37;;;5.30;;
48935;SDS011;34745;52.276;10.528;2023-02-28T03:30:09;11.07;;;5.73;;
48935;SDS011;34745;52.276;10.528;2023-02-28T03:32:38;8.70;;;5.57;;
48935;SDS011;34745;52.276;10.528;2023-02-28T03:35:14;10.13;;;5.50;;
48935;SDS011;34745;52.276;10.528;2023-02-28T03:37:50;9.37;;;5.13;;
48935;SDS011;34745;52.276;10.528;2023-02-28T03:40:22;7.50;;;5.07;;
48935;SDS011;34745;52.276;10.528;2023-02-28T03:42:54;6.07;;;5.00;;
48935;SDS011;34745;52.276;10.528;2023-02-28T03:45:26;6.13;;;5.17;;
48935;SDS011;34745;52.276;10.528;2023-02-28T03:47:57;9.53;;;5.27;;
48935;SDS011;34745;52.276;10.528;2023-02-28T03:50:29;13.13;;;5.30;;
48935;SDS011;34745;52.276;10.528;2023-02-28T03:53:06;6.77;;;5.10;;
48935;SDS011;34745;52.276;10.528;2023-02-28T03:55:39;6.90;;;4.80;;
48935;SDS011;34745;52.276;10.528;2023-02-28T03:58:12;8.53;;;5.60;;
48935;SDS011;34745;52.276;10.528;2023-02-28T04:00:45;10.70;;;4.90;;
48935;SDS011;34745;52.276;10.528;2023-02-28T04:03:15;6.47;;;4.80;;
48935;SDS011;34745;52.276;10.528;2023-02-28T04:05:46;6.90;;;4.83;;
48935;SDS011;34745;52.276;10.528;2023-02-28T04:08:19;7.27;;;5.20;;
48935;SDS011;34745;52.276;10.528;2023-02-28T04:10:47;7.83;;;5.20;;
48935;SDS011;34745;52.276;10.528;2023-02-28T04:13:18;6.77;;;5.00;;
48935;SDS011;34745;52.276;10.528;2023-02-28T04:15:45;10.00;;;5.73;;
48935;SDS011;34745;52.276;10.528;2023-02-28T04:18:11;9.63;;;5.63;;
48935;SDS011;34745;52.276;10.528;2023-02-28T04:20:39;6.93;;;4.87;;
48935;SDS011;34745;52.276;10.528;2023-02-28T04:23:05;8.77;;;5.47;;
48935;SDS011;34745;52.276;10.528;2023-02-28T04:25:34;8.97;;;4.90;;
48935;SDS011;34745;52.276;10.528;2023-02-28T04:28:01;7.13;;;4.97;;
48935;SDS011;34745;52.276;10.528;2023-02-28T04:30:28;10.23;;;5.77;;
48935;SDS011;34745;52.276;10.528;2023-02-28T04:32:55;11.63;;;5.70;;
48935;SDS011;34745;52.276;10.528;2023-02-28T04:35:22;7.43;;;5.40;;
48935;SDS011;34745;52.276;10.528;2023-02-28T04:37:49;8.17;;;5.20;;
48935;SDS011;34745;52.276;10.528;2023-02-28T04:40:16;6.73;;;5.03;;
48935;SDS011;34745;52.276;10.528;2023-02-28T04:42:45;6.73;;;5.03;;
48935;SDS011;34745;52.276;10.528;2023-02-28T04:45:12;7.07;;;5.73;;
48935;SDS011;34745;52.276;10.528;2023-02-28T04:47:39;8.13;;;5.53;;
48935;SDS011;34745;52.276;10.528;2023-02-28T04:50:06;7.67;;;5.67;;
48935;SDS011;34745;52.276;10.528;2023-02-28T04:52:34;9.93;;;6.00;;
48935;SDS011;34745;52.276;10.528;2023-02-28T04:55:01;7.73;;;5.70;;
48935;SDS011;34745;52.276;10.528;2023-02-28T04:57:29;6.63;;;5.27;;
48935;SDS011;34745;52.276;10.528;2023-02-28T04:59:57;7.30;;;5.27;;
48935;SDS011;34745;52.276;10.528;2023-02-28T05:02:24;8.90;;;5.43;;
48935;SDS011;34745;52.276;10.528;2023-02-28T05:04:51;9.00;;;6.20;;
48935;SDS011;34745;52.276;10.528;2023-02-28T05:07:18;9.30;;;5.53;;
48935;SDS011;34745;52.276;10.528;2023-02-28T05:09:45;10.10;;;6.03;;
48935;SDS011;34745;52.276;10.528;2023-02-28T05:12:12;12.10;;;6.20;;
48935;SDS011;34745;52.276;10.528;2023-02-28T05:14:39;9.50;;;5.67;;
48935;SDS011;34745;52.276;10.528;2023-02-28T05:17:07;8.43;;;5.80;;
48935;SDS011;34745;52.276;10.528;2023-02-28T05:19:35;7.63;;;5.57;;
48935;SDS011;34745;52.276;10.528;2023-02-28T05:22:02;8.83;;;5.70;;
48935;SDS011;34745;52.276;10.528;2023-02-28T05:24:29;6.50;;;5.40;;
48935;SDS011;34745;52.276;10.528;2023-02-28T05:26:56;8.40;;;5.77;;
48935;SDS011;34745;52.276;10.528;2023-02-28T05:29:24;8.63;;;5.50;;
48935;SDS011;34745;52.276;10.528;2023-02-28T05:31:51;10.23;;;5.67;;
48935;SDS011;34745;52.276;10.528;2023-02-28T05:34:19;13.53;;;6.50;;
48935;SDS011;34745;52.276;10.528;2023-02-28T05:36:47;10.03;;;6.53;;
48935;SDS011;34745;52.276;10.528;2023-02-28T05:39:13;9.37;;;6.33;;
48935;SDS011;34745;52.276;10.528;2023-02-28T05:41:41;9.77;;;6.07;;
48935;SDS011;34745;52.276;10.528;2023-02-28T05:44:08;9.43;;;5.93;;
48935;SDS011;34745;52.276;10.528;2023-02-28T05:46:36;11.43;;;6.43;;
48935;SDS011;34745;52.276;10.528;2023-02-28T05:49:04;12.43;;;6.20;;
48935;SDS011;34745;52.276;10.528;2023-02-28T05:51:33;9.40;;;6.10;;
48935;SDS011;34745;52.276;10.528;2023-02-28T05:54:02;9.40;;;6.57;;
48935;SDS011;34745;52.276;10.528;2023-02-28T05:56:29;15.57;;;6.50;;
48935;SDS011;34745;52.276;10.528;2023-02-28T05:58:57;11.13;;;6.37;;
48935;SDS011;34745;52.276;10.528;2023-02-28T06:01:30;8.37;;;5.73;;
48935;SDS011;34745;52.276;10.528;2023-02-28T06:03:58;41.47;;;14.63;;
48935;SDS011;34745;52.276;10.528;2023-02-28T06:06:27;19.43;;;9.67;;
48935;SDS011;34745;52.276;10.528;2023-02-28T06:08:55;12.50;;;6.97;;
48935;SDS011;34745;52.276;10.528;2023-02-28T06:11:23;10.60;;;6.63;;
48935;SDS011;34745;52.276;10.528;2023-02-28T06:13:54;10.30;;;6.23;;
48935;SDS011;34745;52.276;10.528;2023-02-28T06:16:22;8.07;;;6.10;;
48935;SDS011;34745;52.276;10.528;2023-02-28T06:18:50;12.17;;;6.90;;
48935;SDS011;34745;52.276;10.528;2023-02-28T06:21:19;13.00;;;6.90;;
48935;SDS011;34745;52.276;10.528;2023-02-28T06:23:45;13.53;;;6.80;;
48935;SDS011;34745;52.276;10.528;2023-02-28T06:26:14;11.37;;;7.20;;
48935;SDS011;34745;52.276;10.528;2023-02-28T06:28:41;12.40;;;7.30;;
48935;SDS011;34745;52.276;10.528;2023-02-28T06:31:08;10.97;;;6.70;;
48935;SDS011;34745;52.276;10.528;2023-02-28T06:33:38;10.27;;;6.80;;
48935;SDS011;34745;52.276;10.528;2023-02-28T06:36:06;20.67;;;6.43;;
48935;SDS011;34745;52.276;10.528;2023-02-28T06:38:34;12.93;;;6.90;;
48935;SDS011;34745;52.276;10.528;2023-02-28T06:41:01;12.97;;;6.47;;
48935;SDS011;34745;52.276;10.528;2023-02-28T06:43:31;9.30;;;5.80;;
48935;SDS011;34745;52.276;10.528;2023-02-28T06:46:00;11.67;;;6.37;;
48935;SDS011;34745;52.276;10.528;2023-02-28T06:48:28;10.27;;;6.63;;
48935;SDS011;34745;52.276;10.528;2023-02-28T06:51:00;11.27;;;6.30;;
48935;SDS011;34745;52.276;10.528;2023-02-28T06:53:28;13.70;;;6.60;;
48935;SDS011;34745;52.276;10.528;2023-02-28T06:55:55;14.37;;;7.10;;
48935;SDS011;34745;52.276;10.528;2023-02-28T06:58:22;14.43;;;6.60;;
48935;SDS011;34745;52.276;10.528;2023-02-28T07:00:51;10.30;;;6.50;;
48935;SDS011;34745;52.276;10.528;2023-02-28T07:03:18;10.07;;;6.57;;
48935;SDS011;34745;52.276;10.528;2023-02-28T07:05:45;10.37;;;5.97;;
48935;SDS011;34745;52.276;10.528;2023-02-28T07:08:13;10.40;;;6.93;;
48935;SDS011;34745;52.276;10.528;2023-02-28T07:10:39;14.53;;;6.50;;
48935;SDS011;34745;52.276;10.528;2023-02-28T07:13:07;12.37;;;6.70;;
48935;SDS011;34745;52.276;10.528;2023-02-28T07:15:35;12.70;;;6.10;;
48935;SDS011;34745;52.276;10.528;2023-02-28T07:18:08;16.77;;;7.07;;
48935;SDS011;34745;52.276;10.528;2023-02-28T07:20:35;12.70;;;6.87;;
48935;SDS011;34745;52.276;10.528;2023-02-28T07:23:02;10.67;;;6.13;;
48935;SDS011;34745;52.276;10.528;2023-02-28T07:25:29;12.17;;;5.93;;
48935;SDS011;34745;52.276;10.528;2023-02-28T07:27:56;10.87;;;6.10;;
48935;SDS011;34745;52.276;10.528;2023-02-28T07:30:25;8.43;;;5.90;;
48935;SDS011;34745;52.276;10.528;2023-02-28T07:32:52;9.17;;;6.03;;
48935;SDS011;34745;52.276;10.528;2023-02-28T07:35:23;8.80;;;5.70;;
48935;SDS011;34745;52.276;10.528;2023-02-28T07:37:50;11.33;;;6.63;;
48935;SDS011;34745;52.276;10.528;2023-02-28T07:40:17;14.33;;;6.37;;
48935;SDS011;34745;52.276;10.528;2023-02-28T07:42:45;8.23;;;5.53;;
48935;SDS011;34745;52.276;10.528;2023-02-28T07:45:12;14.13;;;6.40;;
48935;SDS011;34745;52.276;10.528;2023-02-28T07:47:39;8.70;;;5.50;;
48935;SDS011;34745;52.276;10.528;2023-02-28T07:50:08;10.13;;;5.37;;
48935;SDS011;34745;52.276;10.528;2023-02-28T07:52:38;9.90;;;5.57;;
48935;SDS011;34745;52.276;10.528;2023-02-28T07:55:06;8.13;;;5.10;;
48935;SDS011;34745;52.276;10.528;2023-02-28T07:57:35;7.17;;;5.33;;
48935;SDS011;34745;52.276;10.528;2023-02-28T08:00:03;9.33;;;5.60;;
48935;SDS011;34745;52.276;10.528;2023-02-28T08:02:30;9.57;;;5.33;;
48935;SDS011;34745;52.276;10.528;2023-02-28T08:04:57;17.23;;;5.30;;
48935;SDS011;34745;52.276;10.528;2023-02-28T08:07:25;9.00;;;4.57;;
48935;SDS011;34745;52.276;10.528;2023-02-28T08:09:54;6.43;;;4.70;;
48935;SDS011;34745;52.276;10.528;2023-02-28T08:12:21;11.10;;;5.30;;
48935;SDS011;34745;52.276;10.528;2023-02-28T08:14:48;7.30;;;4.83;;
48935;SDS011;34745;52.276;10.528;2023-02-28T08:17:15;7.17;;;4.53;;
48935;SDS011;34745;52.276;10.528;2023-02-28T08:19:44;7.90;;;4.73;;
48935;SDS011;34745;52.276;10.528;2023-02-28T08:22:11;9.60;;;5.03;;
48935;SDS011;34745;52.276;10.528;2023-02-28T08:24:39;7.97;;;4.77;;
48935;SDS011;34745;52.276;10.528;2023-02-28T08:27:10;7.23;;;4.50;;
48935;SDS011;34745;52.276;10.528;2023-02-28T08:29:37;7.33;;;5.03;;
48935;SDS011;34745;52.276;10.528;2023-02-28T08:32:05;7.20;;;4.70;;
48935;SDS011;34745;52.276;10.528;2023-02-28T08:34:45;13.93;;;5.10;;
48935;SDS011;34745;52.276;10.528;2023-02-28T08:37:13;8.47;;;5.27;;
48935;SDS011;34745;52.276;10.528;2023-02-28T08:39:40;16.67;;;6.97;;
48935;SDS011;34745;52.276;10.528;2023-02-28T08:42:07;12.03;;;5.23;;
48935;SDS011;34745;52.276;10.528;2023-02-28T08:44:35;7.83;;;4.53;;
48935;SDS011;34745;52.276;10.528;2023-02-28T08:47:02;8.73;;;4.40;;
48935;SDS011;34745;52.276;10.528;2023-02-28T08:49:29;7.20;;;4.17;;
48935;SDS011;34745;52.276;10.528;2023-02-28T08:51:57;8.90;;;4.00;;
48935;SDS011;34745;52.276;10.528;2023-02-28T08:54:25;6.47;;;4.03;;
48935;SDS011;34745;52.276;10.528;2023-02-28T08:56:51;6.13;;;4.03;;
48935;SDS011;34745;52.276;10.528;2023-02-28T08:59:18;12.23;;;4.33;;
48935;SDS011;34745;52.276;10.528;2023-02-28T09:01:47;5.23;;;3.70;;
48935;SDS011;34745;52.276;10.528;2023-02-28T09:04:13;6.27;;;4.20;;
48935;SDS011;34745;52.276;10.528;2023-02-28T09:06:45;7.47;;;4.10;;
48935;SDS011;34745;52.276;10.528;2023-02-28T09:09:12;5.80;;;4.30;;
48935;SDS011;34745;52.276;10.528;2023-02-28T09:11:39;5.73;;;4.03;;
48935;SDS011;34745;52.276;10.528;2023-02-28T09:14:06;13.43;;;4.30;;
48935;SDS011;34745;52.276;10.528;2023-02-28T09:16:33;8.63;;;4.20;;
48935;SDS011;34745;52.276;10.528;2023-02-28T09:19:02;8.90;;;3.70;;
48935;SDS011;34745;52.276;10.528;2023-02-28T09:21:29;10.53;;;3.70;;
48935;SDS011;34745;52.276;10.528;2023-02-28T09:23:56;6.87;;;3.60;;
48935;SDS011;34745;52.276;10.528;2023-02-28T09:26:23;11.70;;;4.10;;
48935;SDS011;34745;52.276;10.528;2023-02-28T09:28:57;6.60;;;3.90;;
48935;SDS011;34745;52.276;10.528;2023-02-28T09:31:26;9.03;;;3.77;;
48935;SDS011;34745;52.276;10.528;2023-02-28T09:33:55;11.07;;;4.00;;
48935;SDS011;34745;52.276;10.528;2023-02-28T09:36:25;7.67;;;4.20;;
48935;SDS011;34745;52.276;10.528;2023-02-28T09:39:08;20.13;;;4.27;;
48935;SDS011;34745;52.276;10.528;2023-02-28T09:41:37;10.10;;;4.53;;
48935;SDS011;34745;52.276;10.528;2023-02-28T09:44:16;18.20;;;4.47;;
48935;SDS011;34745;52.276;10.528;2023-02-28T09:46:48;8.00;;;4.40;;
48935;SDS011;34745;52.276;10.528;2023-02-28T09:49:20;7.10;;;4.07;;
48935;SDS011;34745;52.276;10.528;2023-02-28T09:51:54;7.80;;;4.67;;
48935;SDS011;34745;52.276;10.528;2023-02-28T09:54:27;6.77;;;3.57;;
48935;SDS011;34745;52.276;10.528;2023-02-28T09:56:56;4.83;;;3.70;;
48935;SDS011;34745;52.276;10.528;2023-02-28T09:59:31;8.43;;;3.80;;
48935;SDS011;34745;52.276;10.528;2023-02-28T10:02:09;8.67;;;4.20;;
48935;SDS011;34745;52.276;10.528;2023-02-28T10:04:49;7.73;;;3.10;;
48935;SDS011;34745;52.276;10.528;2023-02-28T10:07:30;6.43;;;3.57;;
48935;SDS011;34745;52.276;10.528;2023-02-28T10:10:14;5.00;;;3.60;;
48935;SDS011;34745;52.276;10.528;2023-02-28T10:12:46;4.50;;;3.33;;
48935;SDS011;34745;52.276;10.528;2023-02-28T10:15:15;3.50;;;3.20;;
48935;SDS011;34745;52.276;10.528;2023-02-28T10:17:44;4.37;;;3.03;;
48935;SDS011;34745;52.276;10.528;2023-02-28T10:20:31;3.80;;;2.90;;
48935;SDS011;34745;52.276;10.528;2023-02-28T10:23:04;12.27;;;3.20;;
48935;SDS011;34745;52.276;10.528;2023-02-28T10:25:36;5.80;;;3.13;;
48935;SDS011;34745;52.276;10.528;2023-02-28T10:28:07;4.23;;;3.10;;
48935;SDS011;34745;52.276;10.528;2023-02-28T10:30:38;5.23;;;2.43;;
48935;SDS011;34745;52.276;10.528;2023-02-28T10:33:09;3.87;;;2.90;;
48935;SDS011;34745;52.276;10.528;2023-02-28T10:35:48;3.87;;;2.93;;
48935;SDS011;34745;52.276;10.528;2023-02-28T10:38:18;5.40;;;3.03;;
48935;SDS011;34745;52.276;10.528;2023-02-28T10:40:47;5.67;;;3.30;;
48935;SDS011;34745;52.276;10.528;2023-02-28T10:43:18;4.20;;;3.20;;
48935;SDS011;34745;52.276;10.528;2023-02-28T10:45:57;6.70;;;2.63;;
48935;SDS011;34745;52.276;10.528;2023-02-28T10:48:29;3.87;;;2.27;;
48935;SDS011;34745;52.276;10.528;2023-02-28T10:51:00;2.40;;;2.17;;
48935;SDS011;34745;52.276;10.528;2023-02-28T10:53:33;5.30;;;3.07;;
48935;SDS011;34745;52.276;10.528;2023-02-28T10:56:23;3.93;;;2.43;;
48935;SDS011;34745;52.276;10.528;2023-02-28T10:58:52;4.70;;;2.47;;
48935;SDS011;34745;52.276;10.528;2023-02-28T11:01:21;6.20;;;2.13;;
48935;SDS011;34745;52.276;10.528;2023-02-28T11:03:50;4.43;;;2.20;;
48935;SDS011;34745;52.276;10.528;2023-02-28T11:06:19;2.83;;;2.10;;
48935;SDS011;34745;52.276;10.528;2023-02-28T11:08:52;3.73;;;2.37;;
48935;SDS011;34745;52.276;10.528;2023-02-28T11:11:22;3.07;;;2.40;;
48935;SDS011;34745;52.276;10.528;2023-02-28T11:13:52;3.53;;;2.70;;
48935;SDS011;34745;52.276;10.528;2023-02-28T11:16:22;4.77;;;2.50;;
48935;SDS011;34745;52.276;10.528;2023-02-28T11:18:59;4.50;;;2.40;;
48935;SDS011;34745;52.276;10.528;2023-02-28T11:21:27;3.70;;;2.63;;
48935;SDS011;34745;52.276;10.528;2023-02-28T11:23:59;3.90;;;2.87;;
48935;SDS011;34745;52.276;10.528;2023-02-28T11:26:37;3.43;;;2.60;;
48935;SDS011;34745;52.276;10.528;2023-02-28T11:29:10;4.13;;;2.50;;
48935;SDS011;34745;52.276;10.528;2023-02-28T11:32:00;6.10;;;3.00;;
48935;SDS011;34745;52.276;10.528;2023-02-28T11:34:45;5.67;;;3.47;;
48935;SDS011;34745;52.276;10.528;2023-02-28T11:37:14;4.47;;;2.43;;
48935;SDS011;34745;52.276;10.528;2023-02-28T11:39:45;5.37;;;2.60;;
48935;SDS011;34745;52.276;10.528;2023-02-28T11:45:11;4.20;;;2.70;;
48935;SDS011;34745;52.276;10.528;2023-02-28T11:47:47;5.93;;;3.00;;
48935;SDS011;34745;52.276;10.528;2023-02-28T11:50:27;3.33;;;2.40;;
48935;SDS011;34745;52.276;10.528;2023-02-28T11:53:05;6.97;;;2.73;;
48935;SDS011;34745;52.276;10.528;2023-02-28T11:55:42;4.73;;;2.73;;
48935;SDS011;34745;52.276;10.528;2023-02-28T11:58:17;5.03;;;2.27;;
48935;SDS011;34745;52.276;10.528;2023-02-28T12:00:57;3.87;;;2.50;;
48935;SDS011;34745;52.276;10.528;2023-02-28T12:03:44;2.43;;;2.17;;
48935;SDS011;34745;52.276;10.528;2023-02-28T12:06:18;4.83;;;2.67;;
48935;SDS011;34745;52.276;10.528;2023-02-28T12:08:53;3.20;;;2.60;;
48935;SDS011;34745;52.276;10.528;2023-02-28T12:11:46;3.20;;;2.37;;
48935;SDS011;34745;52.276;10.528;2023-02-28T12:14:21;9.90;;;3.17;;
48935;SDS011;34745;52.276;10.528;2023-02-28T12:17:12;7.80;;;3.50;;
48935;SDS011;34745;52.276;10.528;2023-02-28T12:19:48;4.57;;;3.17;;
48935;SDS011;34745;52.276;10.528;2023-02-28T12:22:32;4.10;;;2.33;;
48935;SDS011;34745;52.276;10.528;2023-02-28T12:25:14;4.13;;;2.30;;
48935;SDS011;34745;52.276;10.528;2023-02-28T12:28:09;3.75;;;2.97;;
48935;SDS011;34745;52.276;10.528;2023-02-28T12:30:39;5.05;;;3.75;;
48935;SDS011;34745;52.276;10.528;2023-02-28T12:33:13;2.88;;;2.45;;
48935;SDS011;34745;52.276;10.528;2023-02-28T12:35:44;2.40;;;2.20;;
48935;SDS011;34745;52.276;10.528;2023-02-28T12:38:17;5.25;;;2.55;;
48935;SDS011;34745;52.276;10.528;2023-02-28T12:40:49;7.35;;;3.90;;
48935;SDS011;34745;52.276;10.528;2023-02-28T12:43:21;3.85;;;3.40;;
48935;SDS011;34745;52.276;10.528;2023-02-28T12:45:55;3.05;;;2.33;;
48935;SDS011;34745;52.276;10.528;2023-02-28T12:48:25;2.35;;;1.85;;
48935;SDS011;34745;52.276;10.528;2023-02-28T12:50:58;3.35;;;2.17;;
48935;SDS011;34745;52.276;10.528;2023-02-28T12:53:30;3.35;;;2.20;;
48935;SDS011;34745;52.276;10.528;2023-02-28T12:56:08;2.42;;;2.20;;
48935;SDS011;34745;52.276;10.528;2023-02-28T12:58:42;2.55;;;2.35;;
48935;SDS011;34745;52.276;10.528;2023-02-28T13:01:20;4.25;;;2.75;;
48935;SDS011;34745;52.276;10.528;2023-02-28T13:04:24;3.60;;;2.85;;
48935;SDS011;34745;52.276;10.528;2023-02-28T13:07:03;5.72;;;2.38;;
48935;SDS011;34745;52.276;10.528;2023-02-28T13:09:50;2.22;;;2.03;;
48935;SDS011;34745;52.276;10.528;2023-02-28T13:12:23;2.63;;;2.10;;
48935;SDS011;34745;52.276;10.528;2023-02-28T13:14:52;4.28;;;2.15;;
48935;SDS011;34745;52.276;10.528;2023-02-28T13:17:30;2.45;;;2.10;;
48935;SDS011;34745;52.276;10.528;2023-02-28T13:19:58;3.80;;;2.28;;
48935;SDS011;34745;52.276;10.528;2023-02-28T13:22:36;2.60;;;2.40;;
48935;SDS011;34745;52.276;10.528;2023-02-28T13:31:21;2.83;;;2.10;;
48935;SDS011;34745;52.276;10.528;2023-02-28T13:34:04;2.63;;;2.40;;
48935;SDS011;34745;52.276;10.528;2023-02-28T13:36:38;4.43;;;2.60;;
48935;SDS011;34745;52.276;10.528;2023-02-28T13:45:22;3.80;;;2.53;;
48935;SDS011;34745;52.276;10.528;2023-02-28T13:47:53;3.03;;;2.25;;
48935;SDS011;34745;52.276;10.528;2023-02-28T13:50:27;2.40;;;2.20;;
48935;SDS011;34745;52.276;10.528;2023-02-28T13:56:03;3.67;;;2.28;;
48935;SDS011;34745;52.276;10.528;2023-02-28T13:58:48;5.55;;;2.60;;
48935;SDS011;34745;52.276;10.528;2023-02-28T14:01:34;2.75;;;2.13;;
48935;SDS011;34745;52.276;10.528;2023-02-28T14:04:25;4.80;;;3.60;;
48935;SDS011;34745;52.276;10.528;2023-02-28T14:07:18;2.60;;;2.40;;
48935;SDS011;34745;52.276;10.528;2023-02-28T14:09:50;3.78;;;2.72;;
48935;SDS011;34745;52.276;10.528;2023-02-28T14:15:30;2.85;;;2.58;;
48935;SDS011;34745;52.276;10.528;2023-02-28T14:18:14;2.90;;;2.55;;
48935;SDS011;34745;52.276;10.528;2023-02-28T14:20:57;4.80;;;2.50;;
48935;SDS011;34745;52.276;10.528;2023-02-28T14:23:34;3.17;;;2.80;;
48935;SDS011;34745;52.276;10.528;2023-02-28T14:26:19;4.05;;;2.70;;
48935;SDS011;34745;52.276;10.528;2023-02-28T14:29:14;3.55;;;2.40;;
48935;SDS011;34745;52.276;10.528;2023-02-28T14:32:02;4.63;;;2.67;;
48935;SDS011;34745;52.276;10.528;2023-02-28T14:34:39;7.53;;;2.63;;
48935;SDS011;34745;52.276;10.528;2023-02-28T14:37:15;3.50;;;2.65;;
48935;SDS011;34745;52.276;10.528;2023-02-28T14:39:46;4.80;;;2.65;;
48935;SDS011;34745;52.276;10.528;2023-02-28T14:42:30;3.45;;;2.70;;
48935;SDS011;34745;52.276;10.528;2023-02-28T14:44:59;3.33;;;2.85;;
48935;SDS011;34745;52.276;10.528;2023-02-28T14:47:27;4.57;;;2.55;;
48935;SDS011;34745;52.276;10.528;2023-02-28T14:49:57;2.40;;;2.20;;
48935;SDS011;34745;52.276;10.528;2023-02-28T14:52:26;3.05;;;2.70;;
48935;SDS011;34745;52.276;10.528;2023-02-28T14:54:57;3.13;;;2.55;;
48935;SDS011;34745;52.276;10.528;2023-02-28T14:57:30;3.05;;;2.75;;
48935;SDS011;34745;52.276;10.528;2023-02-28T15:00:00;4.47;;;3.10;;
48935;SDS011;34745;52.276;10.528;2023-02-28T15:02:30;6.18;;;2.65;;
48935;SDS011;34745;52.276;10.528;2023-02-28T15:05:01;3.78;;;2.60;;
48935;SDS011;34745;52.276;10.528;2023-02-28T15:07:37;5.03;;;2.83;;
48935;SDS011;34745;52.276;10.528;2023-02-28T15:10:13;3.25;;;2.65;;
48935;SDS011;34745;52.276;10.528;2023-02-28T15:12:47;6.45;;;3.10;;
48935;SDS011;34745;52.276;10.528;2023-02-28T15:15:19;4.60;;;3.33;;
48935;SDS011;34745;52.276;10.528;2023-02-28T15:18:01;3.22;;;2.88;;
48935;SDS011;34745;52.276;10.528;2023-02-28T15:20:31;5.10;;;2.92;;
48935;SDS011;34745;52.276;10.528;2023-02-28T15:23:00;5.70;;;3.15;;